createdAt,value
2022-10-17T00:04:46.205Z,0
2022-10-17T00:09:46.274Z,0
2022-10-17T00:14:46.175Z,0
2022-10-17T00:19:59.515Z,0
2022-10-17T00:24:46.708Z,0
2022-10-17T00:29:47.370Z,0
2022-10-17T00:34:46.452Z,0
2022-10-17T00:39:46.606Z,0
2022-10-17T00:44:46.423Z,0
2022-10-17T00:49:46.195Z,0
2022-10-17T00:54:46.273Z,0
2022-10-17T00:59:46.228Z,0
2022-10-17T01:04:46.218Z,0
2022-10-17T01:09:46.193Z,0
2022-10-17T01:14:46.237Z,0
2022-10-17T01:19:46.223Z,0
2022-10-17T01:24:46.191Z,0
2022-10-17T01:29:46.201Z,0
2022-10-17T01:34:46.169Z,0
2022-10-17T01:39:48.188Z,0
2022-10-17T01:44:46.248Z,0
2022-10-17T01:49:46.214Z,0
2022-10-17T01:54:46.216Z,0
2022-10-17T01:59:46.188Z,0
2022-10-17T02:04:46.239Z,0
2022-10-17T02:09:46.195Z,0
2022-10-17T02:14:46.183Z,0
2022-10-17T02:19:46.265Z,0
2022-10-17T02:24:46.316Z,0
2022-10-17T02:29:46.195Z,0
2022-10-17T02:34:46.234Z,0
2022-10-17T02:39:46.258Z,0
2022-10-17T02:44:46.215Z,0
2022-10-17T02:49:46.205Z,0
2022-10-17T02:54:46.225Z,0
2022-10-17T02:59:46.218Z,0
2022-10-17T03:04:46.238Z,0
2022-10-17T03:09:46.352Z,0
2022-10-17T03:14:46.249Z,0
2022-10-17T03:19:46.256Z,0
2022-10-17T03:24:46.197Z,0
2022-10-17T03:29:46.240Z,0
2022-10-17T03:34:46.430Z,0
2022-10-17T03:39:46.209Z,0
2022-10-17T03:44:46.281Z,0
2022-10-17T03:49:46.214Z,0
2022-10-17T03:54:46.277Z,0
2022-10-17T03:59:46.351Z,0
2022-10-17T04:04:46.200Z,0
2022-10-17T04:09:46.216Z,0
2022-10-17T04:14:46.230Z,0
2022-10-17T04:19:46.207Z,0
2022-10-17T04:24:46.273Z,0
2022-10-17T04:29:46.245Z,0
2022-10-17T04:34:46.304Z,0
2022-10-17T04:39:46.254Z,0
2022-10-17T04:44:46.225Z,0
2022-10-17T04:49:46.265Z,0
2022-10-17T04:54:46.239Z,0
2022-10-17T04:59:46.263Z,0
2022-10-17T05:04:46.220Z,0
2022-10-17T05:09:46.252Z,0
2022-10-17T05:14:46.253Z,0
2022-10-17T05:19:46.361Z,0
2022-10-17T05:24:46.279Z,257
2022-10-17T05:29:46.272Z,261
2022-10-17T05:34:46.273Z,264
2022-10-17T05:39:49.172Z,268
2022-10-17T05:44:46.258Z,274
2022-10-17T05:49:51.326Z,287
2022-10-17T05:54:46.232Z,306
2022-10-17T05:59:46.292Z,308
2022-10-17T06:04:46.310Z,324
2022-10-17T06:14:46.316Z,374
2022-10-17T06:19:46.218Z,390
2022-10-17T06:24:46.242Z,416
2022-10-17T06:29:46.396Z,449
2022-10-17T06:34:46.197Z,467
2022-10-17T06:39:46.362Z,473
2022-10-17T06:44:46.297Z,497
2022-10-17T06:49:46.284Z,550
2022-10-17T06:54:46.269Z,599
2022-10-17T06:59:46.256Z,629
2022-10-17T07:04:46.259Z,663
2022-10-17T07:09:46.281Z,624
2022-10-17T07:14:46.351Z,702
2022-10-17T07:19:46.289Z,814
2022-10-17T07:24:46.271Z,726
2022-10-17T07:29:46.237Z,681
2022-10-17T07:34:46.297Z,798
2022-10-17T07:39:46.285Z,858
2022-10-17T07:44:46.270Z,969
2022-10-17T07:49:46.294Z,1038
2022-10-17T07:54:46.328Z,7094
2022-10-17T07:59:46.363Z,12922
2022-10-17T08:04:46.308Z,13867
2022-10-17T08:09:46.320Z,14435
2022-10-17T08:14:46.297Z,14440
2022-10-17T08:19:46.335Z,14737
2022-10-17T08:24:46.343Z,14646
2022-10-17T08:29:46.358Z,14974
2022-10-17T08:34:46.331Z,14416
2022-10-17T08:39:46.352Z,14973
2022-10-17T08:44:46.339Z,15169
2022-10-17T08:49:46.304Z,14598
2022-10-17T09:04:46.534Z,16066
2022-10-17T09:09:46.267Z,14860
2022-10-17T09:14:46.290Z,16307
2022-10-17T09:19:46.292Z,15336
2022-10-17T09:24:46.278Z,15877
2022-10-17T09:29:46.306Z,15189
2022-10-17T09:34:46.481Z,14673
2022-10-17T09:39:46.354Z,14625
2022-10-17T09:44:46.278Z,15864
2022-10-17T09:49:46.297Z,12868
2022-10-17T09:54:46.286Z,9555
2022-10-17T09:59:46.270Z,4702
2022-10-17T10:05:03.562Z,1409
2022-10-17T10:09:46.298Z,1068
2022-10-17T10:14:47.322Z,948
2022-10-17T10:19:46.269Z,1164
2022-10-17T10:24:46.417Z,1125
2022-10-17T10:29:46.373Z,950
2022-10-17T10:34:46.340Z,957
2022-10-17T10:39:46.296Z,984
2022-10-17T10:44:46.302Z,1026
2022-10-17T10:49:46.317Z,943
2022-10-17T10:54:46.317Z,842
2022-10-17T10:59:46.367Z,798
2022-10-17T11:04:46.568Z,856
2022-10-17T11:09:46.344Z,848
2022-10-17T11:14:48.572Z,823
2022-10-17T11:19:46.355Z,840
2022-10-17T11:24:46.298Z,826
2022-10-17T11:29:46.408Z,832
2022-10-17T11:34:46.307Z,902
2022-10-17T11:44:46.409Z,866
2022-10-17T11:49:49.783Z,864
2022-10-17T11:54:46.353Z,820
2022-10-17T11:59:46.344Z,899
2022-10-17T12:04:49.504Z,945
2022-10-17T12:09:46.327Z,867
2022-10-17T12:14:46.303Z,905
2022-10-17T12:19:46.340Z,1299
2022-10-17T12:24:46.388Z,1291
2022-10-17T12:29:46.366Z,938
2022-10-17T12:34:46.338Z,795
2022-10-17T12:39:46.396Z,762
2022-10-17T12:44:47.902Z,756
2022-10-17T12:49:46.324Z,796
2022-10-17T12:55:00.095Z,805
2022-10-17T12:59:46.369Z,1000
2022-10-17T13:04:46.391Z,822
2022-10-17T13:09:46.367Z,770
2022-10-17T13:14:46.387Z,784
2022-10-17T13:19:46.349Z,1054
2022-10-17T13:24:46.342Z,738
2022-10-17T13:29:46.466Z,742
2022-10-17T13:34:46.412Z,737
2022-10-17T13:39:55.939Z,750
2022-10-17T13:44:46.364Z,666
2022-10-17T13:49:46.351Z,699
2022-10-17T13:54:46.352Z,695
2022-10-17T13:59:46.461Z,715
2022-10-17T14:05:15.460Z,601
2022-10-17T14:09:46.374Z,622
2022-10-17T14:15:09.119Z,665
2022-10-17T14:19:55.432Z,669
2022-10-17T14:24:46.395Z,651
2022-10-17T14:29:46.516Z,609
2022-10-17T14:34:46.361Z,619
2022-10-17T14:39:46.376Z,632
2022-10-17T14:44:46.494Z,752
2022-10-17T14:49:46.419Z,568
2022-10-17T14:54:46.462Z,630
2022-10-17T14:59:54.517Z,640
2022-10-17T15:04:46.416Z,535
2022-10-17T15:09:46.407Z,530
2022-10-17T15:14:46.424Z,457
2022-10-17T15:19:46.424Z,430
2022-10-17T15:24:46.438Z,425
2022-10-17T15:29:46.435Z,404
2022-10-17T15:34:46.539Z,384
2022-10-17T15:39:46.468Z,364
2022-10-17T15:44:46.405Z,349
2022-10-17T15:49:46.444Z,334
2022-10-17T15:54:46.429Z,321
2022-10-17T15:59:46.460Z,306
2022-10-17T16:04:46.401Z,296
2022-10-17T16:09:46.494Z,291
2022-10-17T16:14:46.468Z,277
2022-10-17T16:19:46.416Z,265
2022-10-17T16:24:46.517Z,262
2022-10-17T16:29:46.438Z,257
2022-10-17T16:34:46.414Z,0
2022-10-17T16:39:46.468Z,0
2022-10-17T16:44:46.397Z,0
2022-10-17T16:49:46.441Z,0
2022-10-17T16:54:46.429Z,0
2022-10-17T16:59:46.664Z,0
2022-10-17T17:04:46.523Z,0
2022-10-17T17:09:46.438Z,0
2022-10-17T17:14:46.480Z,0
2022-10-17T17:19:46.510Z,0
2022-10-17T17:24:46.484Z,0
2022-10-17T17:29:46.444Z,0
2022-10-17T17:34:46.420Z,0
2022-10-17T17:39:46.493Z,0
2022-10-17T17:44:46.556Z,0
2022-10-17T17:49:46.455Z,0
2022-10-17T17:54:46.428Z,0
2022-10-17T17:59:46.474Z,0
2022-10-17T18:04:46.484Z,0
2022-10-17T18:09:46.511Z,0
2022-10-17T18:14:46.430Z,0
2022-10-17T18:19:46.529Z,0
2022-10-17T18:24:46.491Z,0
2022-10-17T18:29:46.557Z,0
2022-10-17T18:34:46.460Z,0
2022-10-17T18:39:46.503Z,0
2022-10-17T18:44:46.584Z,0
2022-10-17T18:49:46.600Z,0
2022-10-17T18:54:46.458Z,0
2022-10-17T18:59:46.411Z,0
2022-10-17T19:04:46.547Z,0
2022-10-17T19:09:46.499Z,0
2022-10-17T19:14:46.500Z,0
2022-10-17T19:19:46.664Z,0
2022-10-17T19:24:46.496Z,0
2022-10-17T19:29:46.479Z,0
2022-10-17T19:34:46.461Z,0
2022-10-17T19:39:46.441Z,0
2022-10-17T19:44:46.434Z,0
2022-10-17T19:49:49.110Z,0
2022-10-17T19:54:46.509Z,0
2022-10-17T19:59:46.609Z,0
2022-10-17T20:04:54.309Z,0
2022-10-17T20:09:46.481Z,0
2022-10-17T20:14:46.457Z,0
2022-10-17T20:19:46.466Z,0
2022-10-17T20:24:46.492Z,0
2022-10-17T20:29:46.454Z,0
2022-10-17T20:34:46.459Z,0
2022-10-17T20:39:46.516Z,0
2022-10-17T20:44:46.499Z,0
2022-10-17T20:49:46.517Z,0
2022-10-17T20:54:46.495Z,0
2022-10-17T20:59:46.441Z,0
2022-10-17T21:04:48.487Z,0
2022-10-17T21:09:46.442Z,0
2022-10-17T21:14:46.460Z,0
2022-10-17T21:19:46.479Z,0
2022-10-17T21:24:46.475Z,0
2022-10-17T21:29:46.444Z,0
2022-10-17T21:34:46.497Z,0
2022-10-17T21:39:46.470Z,0
2022-10-17T21:44:46.584Z,0
2022-10-17T21:49:46.492Z,0
2022-10-17T21:54:46.486Z,0
2022-10-17T21:59:46.473Z,0
2022-10-17T22:04:46.512Z,0
2022-10-17T22:09:47.357Z,0
2022-10-17T22:14:46.582Z,0
2022-10-17T22:19:46.514Z,0
2022-10-17T22:24:46.448Z,0
2022-10-17T22:29:46.610Z,0
2022-10-17T22:34:47.966Z,0
2022-10-17T22:39:46.473Z,0
2022-10-17T22:44:46.483Z,0
2022-10-17T22:49:46.520Z,0
2022-10-17T22:54:46.492Z,0
2022-10-17T22:59:46.512Z,0
2022-10-17T23:04:46.489Z,0
2022-10-17T23:09:46.469Z,0
2022-10-17T23:14:46.484Z,0
2022-10-17T23:19:46.552Z,0
2022-10-17T23:24:46.484Z,0
2022-10-17T23:29:46.546Z,0
2022-10-17T23:34:46.462Z,0
2022-10-17T23:39:46.465Z,0
2022-10-17T23:44:46.501Z,0
2022-10-17T23:49:46.543Z,0
2022-10-17T23:54:46.511Z,0
2022-10-17T23:59:49.825Z,0
